createdAt,value
2023-05-08T00:00:39.621Z,8.53
2023-05-08T00:03:06.995Z,8.35
2023-05-08T00:05:34.477Z,8.17
2023-05-08T00:08:06.105Z,7.90
2023-05-08T00:10:33.547Z,7.68
2023-05-08T00:13:01.130Z,7.49
2023-05-08T00:15:28.294Z,7.89
2023-05-08T00:17:55.607Z,8.41
2023-05-08T00:20:23.021Z,8.53
2023-05-08T00:22:49.956Z,8.36
2023-05-08T00:25:16.997Z,7.96
2023-05-08T00:27:43.985Z,7.75
2023-05-08T00:30:11.875Z,7.41
2023-05-08T00:32:39.229Z,7.26
2023-05-08T00:35:06.616Z,7.77
2023-05-08T00:37:33.910Z,8.41
2023-05-08T00:40:01.414Z,8.55
2023-05-08T00:42:28.339Z,8.43
2023-05-08T00:44:56.401Z,8.25
2023-05-08T00:47:23.602Z,8.09
2023-05-08T00:49:50.763Z,7.87
2023-05-08T00:52:17.668Z,7.58
2023-05-08T00:54:45.122Z,7.89
2023-05-08T00:57:12.283Z,8.43
2023-05-08T00:59:39.235Z,8.46
2023-05-08T01:02:06.578Z,8.25
2023-05-08T01:04:33.746Z,8.08
2023-05-08T01:07:02.127Z,7.88
2023-05-08T01:09:29.405Z,7.67
2023-05-08T01:12:25.380Z,8.05
2023-05-08T01:14:55.043Z,8.66
2023-05-08T01:17:51.057Z,8.69
2023-05-08T01:20:34.933Z,8.28
2023-05-08T01:23:49.979Z,7.82
2023-05-08T01:26:36.218Z,7.58
2023-05-08T01:29:49.180Z,7.29
2023-05-08T01:32:20.033Z,7.95
2023-05-08T01:34:52.743Z,8.33
2023-05-08T01:37:25.290Z,8.30
2023-05-08T01:40:18.597Z,8.12
2023-05-08T01:42:58.228Z,7.82
2023-05-08T01:45:33.060Z,7.61
2023-05-08T01:48:06.439Z,7.36
2023-05-08T01:50:37.005Z,7.81
2023-05-08T01:53:16.135Z,8.29
2023-05-08T01:55:43.146Z,8.39
2023-05-08T01:58:10.409Z,8.28
2023-05-08T02:00:39.029Z,7.99
2023-05-08T02:03:06.962Z,7.67
2023-05-08T02:05:35.316Z,7.48
2023-05-08T02:08:02.444Z,7.80
2023-05-08T02:10:29.689Z,8.31
2023-05-08T02:12:56.790Z,8.28
2023-05-08T02:15:23.992Z,8.25
2023-05-08T02:17:51.061Z,8.01
2023-05-08T02:20:18.128Z,7.80
2023-05-08T02:22:45.849Z,7.52
2023-05-08T02:25:14.654Z,8.01
2023-05-08T02:27:48.090Z,8.67
2023-05-08T02:30:16.721Z,8.64
2023-05-08T02:32:45.392Z,8.46
2023-05-08T02:35:17.189Z,8.16
2023-05-08T02:37:45.652Z,7.96
2023-05-08T02:40:13.608Z,7.70
2023-05-08T02:42:41.434Z,8.02
2023-05-08T02:45:10.259Z,8.41
2023-05-08T02:47:46.423Z,8.46
2023-05-08T02:50:48.489Z,8.38
2023-05-08T02:53:24.307Z,8.01
2023-05-08T02:55:58.221Z,7.73
2023-05-08T02:58:50.116Z,7.50
2023-05-08T03:01:21.584Z,8.04
2023-05-08T03:03:53.315Z,8.64
2023-05-08T03:06:21.938Z,8.59
2023-05-08T03:08:49.119Z,8.28
2023-05-08T03:11:18.386Z,8.11
2023-05-08T03:13:45.755Z,7.90
2023-05-08T03:16:19.434Z,7.58
2023-05-08T03:18:53.784Z,7.44
2023-05-08T03:21:21.367Z,8.13
2023-05-08T03:23:48.648Z,8.80
2023-05-08T03:26:22.430Z,8.81
2023-05-08T03:28:50.646Z,8.62
2023-05-08T03:31:22.835Z,8.17
2023-05-08T03:33:54.750Z,8.00
2023-05-08T03:36:22.692Z,7.69
2023-05-08T03:38:49.710Z,7.60
2023-05-08T03:41:16.751Z,8.03
2023-05-08T03:43:44.098Z,8.48
2023-05-08T03:46:11.277Z,8.63
2023-05-08T03:48:38.398Z,8.52
2023-05-08T03:51:06.684Z,8.24
2023-05-08T03:53:35.992Z,7.96
2023-05-08T03:56:03.836Z,7.80
2023-05-08T03:58:55.175Z,7.67
2023-05-08T04:01:29.647Z,8.14
2023-05-08T04:04:03.636Z,8.74
2023-05-08T04:06:55.636Z,8.63
2023-05-08T04:09:29.122Z,8.46
2023-05-08T04:12:15.618Z,8.32
2023-05-08T04:14:44.308Z,8.17
2023-05-08T04:17:12.338Z,8.04
2023-05-08T04:19:44.217Z,7.93
2023-05-08T04:22:12.239Z,8.50
2023-05-08T04:24:42.448Z,8.91
2023-05-08T04:27:09.890Z,9.09
2023-05-08T04:29:37.162Z,8.92
2023-05-08T04:32:06.033Z,8.76
2023-05-08T04:34:33.853Z,8.41
2023-05-08T04:37:01.140Z,8.14
2023-05-08T04:39:28.454Z,7.97
2023-05-08T04:41:55.860Z,8.44
2023-05-08T04:44:22.969Z,8.99
2023-05-08T04:46:50.390Z,9.16
2023-05-08T04:49:17.892Z,9.04
2023-05-08T04:51:44.863Z,8.82
2023-05-08T04:54:11.879Z,8.62
2023-05-08T04:56:39.417Z,8.48
2023-05-08T04:59:06.833Z,8.36
2023-05-08T05:01:35.229Z,8.22
2023-05-08T05:04:02.319Z,8.73
2023-05-08T05:06:29.721Z,9.38
2023-05-08T05:08:56.990Z,9.52
2023-05-08T05:11:24.156Z,9.36
2023-05-08T05:13:51.268Z,9.17
2023-05-08T05:16:18.348Z,8.92
2023-05-08T05:18:46.376Z,8.75
2023-05-08T05:21:14.160Z,8.65
2023-05-08T05:23:41.480Z,8.47
2023-05-08T14:24:43.823Z,11.88
2023-05-08T14:27:10.863Z,12.34
2023-05-08T14:29:37.533Z,12.05
2023-05-08T14:32:04.256Z,12.01
2023-05-08T14:34:30.739Z,11.93
2023-05-08T14:36:57.276Z,11.86
2023-05-08T14:39:23.520Z,11.86
2023-05-08T14:42:05.762Z,11.88
2023-05-08T14:44:36.059Z,11.83
2023-05-08T14:47:02.504Z,11.75
2023-05-08T14:49:37.400Z,11.61
2023-05-08T14:52:06.022Z,11.53
2023-05-08T14:54:32.546Z,11.51
2023-05-08T14:56:59.168Z,12.10
2023-05-08T14:59:25.440Z,12.72
2023-05-08T15:01:51.749Z,12.87
2023-05-08T15:04:18.222Z,12.81
2023-05-08T15:06:45.123Z,12.62
2023-05-08T15:09:11.754Z,12.44
2023-05-08T15:11:38.093Z,12.24
2023-05-08T15:14:04.712Z,12.09
2023-05-08T15:16:31.136Z,11.97
2023-05-08T15:18:57.728Z,11.89
2023-05-08T15:21:26.008Z,11.78
2023-05-08T15:23:53.642Z,11.67
2023-05-08T15:26:20.367Z,11.58
2023-05-08T15:28:46.707Z,11.55
2023-05-08T15:31:13.741Z,11.55
2023-05-08T15:33:44.017Z,12.19
2023-05-08T15:36:14.061Z,12.99
2023-05-08T15:38:40.844Z,13.14
2023-05-08T15:41:07.454Z,13.01
2023-05-08T15:43:33.942Z,12.82
2023-05-08T15:46:00.390Z,12.65
2023-05-08T15:48:26.698Z,12.52
2023-05-08T15:50:52.963Z,12.29
2023-05-08T15:53:19.258Z,12.03
2023-05-08T15:55:45.488Z,11.90
2023-05-08T15:58:11.727Z,11.81
2023-05-08T16:00:44.685Z,11.68
2023-05-08T16:03:11.977Z,11.52
2023-05-08T16:05:38.929Z,11.47
2023-05-08T16:08:05.413Z,11.37
2023-05-08T16:10:31.891Z,11.33
2023-05-08T16:12:58.227Z,11.29
2023-05-08T16:15:24.526Z,11.81
2023-05-08T16:17:50.796Z,12.43
2023-05-08T16:20:17.112Z,12.57
2023-05-08T16:22:43.790Z,12.53
2023-05-08T16:25:10.059Z,12.39
2023-05-08T16:27:36.692Z,12.20
2023-05-08T16:30:03.316Z,12.07
2023-05-08T16:32:30.208Z,11.93
2023-05-08T16:34:56.601Z,11.85
2023-05-08T16:37:22.900Z,11.74
2023-05-08T16:39:49.145Z,11.65
2023-05-08T16:42:15.407Z,11.56
2023-05-08T16:44:41.614Z,11.49
2023-05-08T16:47:08.039Z,11.43
2023-05-08T16:49:34.313Z,11.37
2023-05-08T16:52:00.591Z,11.28
2023-05-08T16:54:26.962Z,11.89
2023-05-08T16:56:53.276Z,12.65
2023-05-08T16:59:19.514Z,12.85
2023-05-08T17:01:45.837Z,12.77
2023-05-08T17:04:12.354Z,12.58
2023-05-08T17:06:39.816Z,12.39
2023-05-08T17:09:06.240Z,12.18
2023-05-08T17:11:32.546Z,12.00
2023-05-08T17:13:58.816Z,11.83
2023-05-08T17:16:25.420Z,11.69
2023-05-08T17:18:51.711Z,11.56
2023-05-08T17:21:18.102Z,11.41
2023-05-08T17:23:45.054Z,11.90
2023-05-08T17:26:11.327Z,12.58
2023-05-08T17:28:37.645Z,12.71
2023-05-08T17:31:04.602Z,12.58
2023-05-08T17:33:31.387Z,12.35
2023-05-08T17:35:57.667Z,12.13
2023-05-08T17:38:23.946Z,11.90
2023-05-08T17:40:50.227Z,11.70
2023-05-08T17:43:18.840Z,11.50
2023-05-08T17:45:46.840Z,11.33
2023-05-08T17:48:13.505Z,11.16
2023-05-08T17:50:41.636Z,11.62
2023-05-08T17:53:07.834Z,12.26
2023-05-08T17:55:34.684Z,12.40
2023-05-08T17:58:01.472Z,12.26
2023-05-08T18:00:27.716Z,12.05
2023-05-08T18:02:54.258Z,11.81
2023-05-08T18:05:20.625Z,11.60
2023-05-08T18:07:46.900Z,11.40
2023-05-08T18:10:13.568Z,11.22
2023-05-08T18:12:40.481Z,11.02
2023-05-08T18:15:07.503Z,11.50
2023-05-08T18:17:34.284Z,12.12
2023-05-08T18:20:03.486Z,12.21
2023-05-08T18:22:30.516Z,12.01
2023-05-08T18:24:57.025Z,11.76
2023-05-08T18:27:23.932Z,11.51
2023-05-08T18:29:50.108Z,11.26
2023-05-08T18:32:16.493Z,11.01
2023-05-08T18:34:42.807Z,11.39
2023-05-08T18:37:09.199Z,11.95
2023-05-08T18:39:35.516Z,12.01
2023-05-08T18:42:01.749Z,11.80
2023-05-08T18:44:28.072Z,11.52
2023-05-08T18:46:55.717Z,11.23
2023-05-08T18:49:21.953Z,10.97
2023-05-08T18:51:48.588Z,10.70
2023-05-08T18:54:14.862Z,11.04
2023-05-08T18:56:41.277Z,11.56
2023-05-08T18:59:08.063Z,11.59
2023-05-08T19:01:34.597Z,11.37
2023-05-08T19:04:02.352Z,11.06
2023-05-08T19:06:28.909Z,10.75
2023-05-08T19:08:55.263Z,10.46
2023-05-08T19:11:21.647Z,10.16
2023-05-08T19:13:49.449Z,10.45
2023-05-08T19:16:15.922Z,10.97
2023-05-08T19:18:42.202Z,11.01
2023-05-08T19:21:08.482Z,10.82
2023-05-08T19:23:34.747Z,10.55
2023-05-08T19:26:01.017Z,10.31
2023-05-08T19:28:27.234Z,10.07
2023-05-08T19:30:53.697Z,9.82
2023-05-08T19:33:20.213Z,10.25
2023-05-08T19:35:47.208Z,10.82
2023-05-08T19:38:13.892Z,10.89
2023-05-08T19:40:52.414Z,10.71
2023-05-08T19:43:25.353Z,10.44
2023-05-08T19:45:51.875Z,10.21
2023-05-08T19:48:19.521Z,9.99
2023-05-08T19:50:46.080Z,9.78
2023-05-08T19:53:12.393Z,10.26
2023-05-08T19:55:38.698Z,10.86
2023-05-08T19:58:05.581Z,10.94
2023-05-08T20:00:33.090Z,10.77
2023-05-08T20:02:59.530Z,10.53
2023-05-08T20:05:26.247Z,10.28
2023-05-08T20:07:52.647Z,10.03
2023-05-08T20:10:19.104Z,9.81
2023-05-08T20:12:45.817Z,10.26
2023-05-08T20:15:12.349Z,10.85
2023-05-08T20:17:39.199Z,10.93
2023-05-08T20:20:06.360Z,10.77
2023-05-08T20:22:32.966Z,10.52
2023-05-08T20:25:00.503Z,10.28
2023-05-08T20:27:28.079Z,10.02
2023-05-08T20:29:54.349Z,10.38
2023-05-08T20:32:21.112Z,10.91
2023-05-08T20:34:47.458Z,10.97
2023-05-08T20:37:15.358Z,10.80
2023-05-08T20:39:42.172Z,10.55
2023-05-08T20:42:08.505Z,10.31
2023-05-08T20:44:34.963Z,10.08
2023-05-08T20:47:01.235Z,9.85
2023-05-08T20:49:27.491Z,10.31
2023-05-08T20:51:53.826Z,10.89
2023-05-08T20:54:20.921Z,10.95
2023-05-08T20:56:47.342Z,10.77
2023-05-08T20:59:15.816Z,10.51
2023-05-08T21:01:42.256Z,10.26
2023-05-08T21:04:08.659Z,10.01
2023-05-08T21:06:34.988Z,9.78
2023-05-08T21:09:01.444Z,10.21
2023-05-08T21:11:27.966Z,10.79
2023-05-08T21:13:54.252Z,10.86
2023-05-08T21:16:20.589Z,10.67
2023-05-08T21:18:46.954Z,10.42
2023-05-08T21:21:16.821Z,10.15
2023-05-08T21:23:43.265Z,9.91
2023-05-08T21:26:09.711Z,9.68
2023-05-08T21:28:36.076Z,10.14
2023-05-08T21:31:02.480Z,10.72
2023-05-08T21:33:29.249Z,10.80
2023-05-08T21:35:55.589Z,10.61
2023-05-08T21:38:21.909Z,10.35
2023-05-08T21:40:48.317Z,10.07
2023-05-08T21:43:14.993Z,9.81
2023-05-08T21:45:41.227Z,9.58
2023-05-08T21:48:07.696Z,10.03
2023-05-08T21:50:34.246Z,10.62
2023-05-08T21:53:00.819Z,10.69
2023-05-08T21:55:27.260Z,10.50
2023-05-08T21:57:53.693Z,10.25
2023-05-08T22:00:20.372Z,9.97
2023-05-08T22:02:47.061Z,9.71
2023-05-08T22:05:14.038Z,9.48
2023-05-08T22:07:40.845Z,9.89
2023-05-08T22:10:08.815Z,10.47
2023-05-08T22:12:35.316Z,10.55
2023-05-08T22:15:01.987Z,10.39
2023-05-08T22:17:28.581Z,10.14
2023-05-08T22:19:54.788Z,9.88
2023-05-08T22:22:21.316Z,9.66
2023-05-08T22:24:47.632Z,9.44
2023-05-08T22:27:14.023Z,9.90
2023-05-08T22:29:40.338Z,10.49
2023-05-08T22:32:07.893Z,10.56
2023-05-08T22:34:34.460Z,10.39
2023-05-08T22:37:00.712Z,10.12
2023-05-08T22:39:27.066Z,9.84
2023-05-08T22:41:53.628Z,9.57
2023-05-08T22:44:20.052Z,9.88
2023-05-08T22:46:46.373Z,10.40
2023-05-08T22:49:12.762Z,10.46
2023-05-08T22:51:39.189Z,10.25
2023-05-08T22:54:05.840Z,9.97
2023-05-08T22:56:32.363Z,9.70
2023-05-08T22:58:58.620Z,9.42
2023-05-08T23:01:24.887Z,9.78
2023-05-08T23:03:53.194Z,10.32
2023-05-08T23:06:19.638Z,10.37
2023-05-08T23:08:46.063Z,10.17
2023-05-08T23:11:12.775Z,9.90
2023-05-08T23:13:39.233Z,9.63
2023-05-08T23:16:05.802Z,9.36
2023-05-08T23:18:33.511Z,9.74
2023-05-08T23:21:06.380Z,10.26
2023-05-08T23:23:33.842Z,10.30
2023-05-08T23:26:03.996Z,10.09
2023-05-08T23:28:33.241Z,9.79
2023-05-08T23:30:59.902Z,9.46
2023-05-08T23:33:26.266Z,9.18
2023-05-08T23:35:56.337Z,9.55
2023-05-08T23:38:23.129Z,10.11
2023-05-08T23:40:50.208Z,10.15
2023-05-08T23:43:17.613Z,9.93
2023-05-08T23:45:43.912Z,9.67
2023-05-08T23:48:10.382Z,9.41
2023-05-08T23:50:36.805Z,9.14
2023-05-08T23:53:05.578Z,9.50
2023-05-08T23:55:34.500Z,10.02
2023-05-08T23:58:01.029Z,10.07
